Time;durP1;ratioP1;P1;durP2;ratioP2;P2;SDS_P1;SDS_P2;PMS_P1;PMS_P2;Temp;Humidity;BMP_temperature;BMP_pressure;BME280_temperature;BME280_humidity;BME280_pressure;Samples;Min_cycle;Max_cycle;Signal;HPM_P1;HPM_P2
2021/07/05 00:00:24;;;;;;;;;;;;;;;21.22;61.73;100039.78;5058193;28;975;-49
2021/07/05 00:02:50;;;;;;;;;;;;;;;21.14;61.79;100035.88;5057913;28;1971;-49
2021/07/05 00:05:15;;;;;;;;;;;;;;;20.94;59.48;100036.47;5039300;28;752;-53
2021/07/05 00:07:42;;;;;;;;;;;;;;;21.18;61.52;100023.03;5058490;28;826;-49
2021/07/05 00:10:08;;;;;;;;;;;;;;;21.47;61.70;100029.88;5040245;28;851;-49
2021/07/05 00:12:34;;;;;;;;;;;;;;;21.57;61.01;100025.19;5039633;28;952;-49
2021/07/05 00:14:59;;;;;;;;;;;;;;;21.79;60.25;100024.22;5057852;28;966;-49
2021/07/05 00:17:25;;;;;;;;;;;;;;;21.37;61.54;100030.22;5039874;28;901;-50
2021/07/05 00:19:50;;;;;;;;;;;;;;;21.10;62.66;100025.81;5057588;28;804;-52
2021/07/05 00:22:16;;;;;;;;;;;;;;;21.02;61.45;100025.44;5058042;28;1968;-50
2021/07/05 00:24:41;;;;;;;;;;;;;;;20.78;59.81;100025.88;5040102;28;894;-49
2021/07/05 00:27:06;;;;;;;;;;;;;;;21.07;61.28;100026.41;5057587;28;760;-53
2021/07/05 00:29:32;;;;;;;;;;;;;;;21.26;61.77;100012.31;5039241;28;1157;-51
2021/07/05 00:31:57;;;;;;;;;;;;;;;21.45;61.42;100023.06;5057512;28;824;-51
2021/07/05 00:34:23;;;;;;;;;;;;;;;21.72;60.53;100010.88;5057444;28;820;-52
2021/07/05 00:36:48;;;;;;;;;;;;;;;21.61;60.84;100012.34;5056846;28;843;-53
2021/07/05 00:39:14;;;;;;;;;;;;;;;21.09;62.52;100002.84;5057413;28;898;-53
2021/07/05 00:41:39;;;;;;;;;;;;;;;21.01;63.02;100009.19;5057108;28;1879;-51
2021/07/05 00:44:05;;;;;;;;;;;;;;;20.65;60.46;100004.66;5056762;28;943;-52
2021/07/05 00:46:30;;;;;;;;;;;;;;;20.96;60.82;100009.34;5057245;28;1226;-52
2021/07/05 00:48:56;;;;;;;;;;;;;;;21.22;62.75;100006.59;5057563;28;744;-54
2021/07/05 00:51:21;;;;;;;;;;;;;;;21.67;61.31;100005.50;5057140;28;788;-49
2021/07/05 00:53:47;;;;;;;;;;;;;;;21.80;60.40;99998.97;5057766;28;804;-51
2021/07/05 00:56:13;;;;;;;;;;;;;;;21.85;60.31;99993.28;5056603;28;764;-51
2021/07/05 00:58:39;;;;;;;;;;;;;;;21.92;60.08;99994.72;5056889;28;788;-50
2021/07/05 01:01:04;;;;;;;;;;;;;;;21.84;60.30;99997.19;5057171;28;955;-51
2021/07/05 01:03:30;;;;;;;;;;;;;;;21.37;61.67;99999.78;5038581;28;1898;-51
2021/07/05 01:05:55;;;;;;;;;;;;;;;21.23;62.17;100004.66;5038925;28;1170;-49
2021/07/05 01:08:20;;;;;;;;;;;;;;;21.01;59.76;100006.41;5057516;28;849;-48
2021/07/05 01:10:47;;;;;;;;;;;;;;;20.82;60.36;100003.94;5056811;28;740;-48
2021/07/05 01:13:13;;;;;;;;;;;;;;;21.31;61.69;100006.63;5038316;28;1635;-51
2021/07/05 01:15:38;;;;;;;;;;;;;;;21.53;62.22;100003.72;5056457;28;967;-52
2021/07/05 01:18:04;;;;;;;;;;;;;;;21.75;61.51;100010.22;5056217;28;760;-50
2021/07/05 01:20:30;;;;;;;;;;;;;;;21.65;61.55;99992.00;5056722;28;779;-50
2021/07/05 01:22:56;;;;;;;;;;;;;;;21.24;63.11;100003.50;5056658;28;1909;-53
2021/07/05 01:25:22;;;;;;;;;;;;;;;21.09;62.39;99997.31;5056486;28;803;-51
2021/07/05 01:27:47;;;;;;;;;;;;;;;20.76;59.87;99994.16;5056616;28;796;-51
2021/07/05 01:30:13;;;;;;;;;;;;;;;21.23;60.71;99994.41;5021501;28;1269;-52
2021/07/05 01:32:39;;;;;;;;;;;;;;;21.36;63.19;100009.22;5038548;28;808;-53
2021/07/05 01:35:05;;;;;;;;;;;;;;;21.69;61.83;100001.25;5056729;28;776;-50
2021/07/05 01:37:30;;;;;;;;;;;;;;;21.84;61.24;100005.50;5038364;28;892;-52
2021/07/05 01:39:56;;;;;;;;;;;;;;;21.87;61.02;99998.50;5055994;28;875;-50
2021/07/05 01:42:21;;;;;;;;;;;;;;;21.39;62.52;99999.47;5056465;28;1913;-51
2021/07/05 01:44:47;;;;;;;;;;;;;;;21.31;63.04;100006.63;5056182;28;1041;-52
2021/07/05 01:47:14;;;;;;;;;;;;;;;20.98;60.44;99996.00;5056589;28;978;-52
2021/07/05 01:49:41;;;;;;;;;;;;;;;21.09;59.53;99996.53;5056505;28;748;-51
2021/07/05 01:52:07;;;;;;;;;;;;;;;21.45;61.52;100001.75;5056650;28;802;-52
2021/07/05 01:54:32;;;;;;;;;;;;;;;21.66;62.50;100001.13;5056167;28;870;-52
2021/07/05 01:56:58;;;;;;;;;;;;;;;21.83;61.33;99991.97;5056151;28;827;-55
2021/07/05 01:59:23;;;;;;;;;;;;;;;21.84;61.08;99988.06;5055914;28;994;-49
2021/07/05 02:01:49;;;;;;;;;;;;;;;21.88;60.76;99986.25;5038490;28;1902;-52
2021/07/05 02:04:14;;;;;;;;;;;;;;;;;;5037896;28;827;-51
2021/07/05 02:06:40;;;;;;;;;;;;;;;21.31;62.61;99993.59;5021903;28;1163;-54
2021/07/05 02:09:06;;;;;;;;;;;;;;;20.79;60.82;99994.34;5038222;28;914;-54
2021/07/05 02:11:31;;;;;;;;;;;;;;;20.96;61.40;99998.28;5055664;28;851;-50
2021/07/05 02:13:57;;;;;;;;;;;;;;;21.57;61.93;100011.38;5055358;28;979;-53
2021/07/05 02:16:22;;;;;;;;;;;;;;;21.69;61.65;100015.09;5056099;28;863;-51
2021/07/05 02:18:47;;;;;;;;;;;;;;;21.82;60.82;100018.81;5038047;28;1498;-47
2021/07/05 02:21:13;;;;;;;;;;;;;;;21.72;61.19;100016.41;5055947;28;744;-47
2021/07/05 02:23:38;;;;;;;;;;;;;;;21.49;61.67;100027.63;5055528;28;1910;-47
2021/07/05 02:26:05;;;;;;;;;;;;;;;21.40;62.15;100018.50;5037576;28;835;-47
2021/07/05 02:28:33;;;;;;;;;;;;;;;21.19;60.76;100029.38;5021659;28;1688;-47
2021/07/05 02:30:59;;;;;;;;;;;;;;;20.99;60.22;100030.81;5037843;28;975;-48
2021/07/05 02:33:25;;;;;;;;;;;;;;;21.23;62.23;100035.88;5055514;28;768;-52
2021/07/05 02:35:51;;;;;;;;;;;;;;;21.58;61.01;100037.91;5055564;28;808;-47
2021/07/05 02:38:16;;;;;;;;;;;;;;;21.62;60.87;100047.97;5056084;28;907;-50
2021/07/05 02:40:43;;;;;;;;;;;;;;;21.78;59.75;100042.75;5055440;28;796;-48
2021/07/05 02:43:08;;;;;;;;;;;;;;;21.60;58.71;100044.75;5055626;28;1918;-50
2021/07/05 02:45:34;;;;;;;;;;;;;;;21.41;57.65;100039.50;5055235;28;1173;-53
2021/07/05 02:48:07;;;;;;;;;;;;;;;20.99;56.57;100044.63;5055771;28;819;-51
2021/07/05 02:50:32;;;;;;;;;;;;;;;20.96;54.90;100048.03;5055498;28;1063;-47
2021/07/05 02:52:58;;;;;;;;;;;;;;;20.73;54.18;100050.06;5056000;28;736;-48
2021/07/05 02:55:23;;;;;;;;;;;;;;;20.48;54.18;100044.91;5055640;28;812;-46
2021/07/05 02:57:49;;;;;;;;;;;;;;;20.28;53.82;100045.44;5055714;28;764;-51
2021/07/05 03:00:19;;;;;;;;;;;;;;;20.33;54.08;100048.88;5058343;28;966;-51
2021/07/05 03:02:44;;;;;;;;;;;;;;;20.68;55.43;100056.56;5059235;28;1966;-49
2021/07/05 03:05:10;;;;;;;;;;;;;;;20.91;56.72;100056.47;5041595;28;745;-53
2021/07/05 03:07:36;;;;;;;;;;;;;;;21.02;57.57;100055.03;5041058;28;858;-51
2021/07/05 03:10:03;;;;;;;;;;;;;;;21.25;58.10;100060.44;5024323;28;789;-49
2021/07/05 03:12:28;;;;;;;;;;;;;;;21.35;58.69;100057.38;5040359;28;795;-50
2021/07/05 03:14:54;;;;;;;;;;;;;;;20.98;60.29;100057.63;5058264;28;932;-53
2021/07/05 03:17:19;;;;;;;;;;;;;;;20.83;61.43;100061.66;5058713;28;788;-50
2021/07/05 03:19:45;;;;;;;;;;;;;;;20.82;59.44;100059.22;5041061;28;825;-54
2021/07/05 03:22:11;;;;;;;;;;;;;;;20.67;60.07;100054.91;5041272;28;1957;-46
2021/07/05 03:24:36;;;;;;;;;;;;;;;20.94;62.30;100055.81;5040391;28;828;-50
2021/07/05 03:27:02;;;;;;;;;;;;;;;21.43;60.82;100051.03;5058720;28;852;-51
2021/07/05 03:29:27;;;;;;;;;;;;;;;21.36;61.09;100053.47;5040105;28;1132;-51
2021/07/05 03:31:53;;;;;;;;;;;;;;;21.49;60.68;100049.75;5040159;28;896;-53
2021/07/05 03:34:18;;;;;;;;;;;;;;;21.28;61.35;100051.50;5040781;28;779;-48
2021/07/05 03:36:44;;;;;;;;;;;;;;;21.18;61.72;100053.44;5040874;28;1245;-52
2021/07/05 03:39:09;;;;;;;;;;;;;;;21.12;61.36;100060.25;5040523;28;1234;-57
2021/07/05 03:41:35;;;;;;;;;;;;;;;20.49;60.47;100057.56;5058330;28;1918;-54
2021/07/05 03:44:00;;;;;;;;;;;;;;;21.08;62.31;100050.97;5007099;28;1312;-52
2021/07/05 03:46:26;;;;;;;;;;;;;;;21.46;61.49;100046.81;5040010;28;1183;-43
2021/07/05 03:48:51;;;;;;;;;;;;;;;21.72;60.46;100049.59;5023278;28;850;-48
2021/07/05 03:51:17;;;;;;;;;;;;;;;21.77;60.23;100048.63;5040742;28;812;-44
2021/07/05 03:53:43;;;;;;;;;;;;;;;21.42;61.26;100052.19;5040704;28;768;-43
2021/07/05 03:56:08;;;;;;;;;;;;;;;21.04;62.56;100050.00;5058332;28;804;-48
2021/07/05 03:58:33;;;;;;;;;;;;;;;20.98;61.11;100043.00;5023833;28;760;-48
2021/07/05 04:01:00;;;;;;;;;;;;;;;20.93;60.44;100043.13;5022980;28;1230;-40
2021/07/05 04:03:26;;;;;;;;;;;;;;;20.98;62.19;100038.25;5007933;28;1890;-45
2021/07/05 04:05:52;;;;;;;;;;;;;;;21.46;61.29;100044.03;5057770;28;794;-44
2021/07/05 04:08:19;;;;;;;;;;;;;;;21.68;60.51;100046.66;5057391;28;806;-45
2021/07/05 04:10:44;;;;;;;;;;;;;;;21.64;60.73;100047.66;5056701;28;774;-44
2021/07/05 04:13:10;;;;;;;;;;;;;;;21.54;60.85;100046.03;5058339;28;751;-42
2021/07/05 04:15:36;;;;;;;;;;;;;;;21.18;62.39;100045.16;5056769;28;1050;-42
2021/07/05 04:18:02;;;;;;;;;;;;;;;20.97;60.45;100038.59;5058037;28;814;-42
2021/07/05 04:20:27;;;;;;;;;;;;;;;20.84;59.77;100038.38;5058380;28;795;-44
2021/07/05 04:22:53;;;;;;;;;;;;;;;21.26;61.83;100035.22;5057364;28;1898;-45
2021/07/05 04:25:18;;;;;;;;;;;;;;;21.63;61.72;100043.25;5057472;28;779;-42
2021/07/05 04:27:45;;;;;;;;;;;;;;;21.79;60.76;100038.84;5057601;28;751;-45
2021/07/05 04:30:10;;;;;;;;;;;;;;;21.78;60.76;100040.00;5056649;28;982;-43
2021/07/05 04:32:39;;;;;;;;;;;;;;;21.68;60.97;100035.59;5057415;28;764;-43
2021/07/05 04:35:05;;;;;;;;;;;;;;;21.25;62.49;100028.09;5057069;28;819;-45
2021/07/05 04:37:31;;;;;;;;;;;;;;;;;;5039320;28;1002;-48
2021/07/05 04:39:56;;;;;;;;;;;;;;;20.69;59.81;100036.06;5039651;28;1000;-43
2021/07/05 04:42:21;;;;;;;;;;;;;;;21.11;61.76;100030.16;5057116;28;1967;-44
2021/07/05 04:44:50;;;;;;;;;;;;;;;21.41;62.87;100031.19;5038841;28;1337;-44
2021/07/05 04:47:15;;;;;;;;;;;;;;;21.77;61.59;100030.09;5039124;28;1556;-43
2021/07/05 04:49:41;;;;;;;;;;;;;;;21.84;61.14;100027.63;5056958;28;768;-45
2021/07/05 04:52:06;;;;;;;;;;;;;;;21.55;61.76;100019.19;5037118;28;1012;-43
2021/07/05 04:54:32;;;;;;;;;;;;;;;21.42;62.28;100032.00;5037342;28;856;-41
2021/07/05 04:56:57;;;;;;;;;;;;;;;21.41;61.47;100025.66;5042282;28;783;-43
2021/07/05 04:59:25;;;;;;;;;;;;;;;20.87;59.54;100033.38;5056809;28;1010;-43
2021/07/05 05:01:50;;;;;;;;;;;;;;;21.23;61.07;100032.31;5055430;28;1926;-44
2021/07/05 05:04:15;;;;;;;;;;;;;;;21.33;61.95;100032.00;5076777;28;762;-43
2021/07/05 05:06:44;;;;;;;;;;;;;;;21.84;61.99;100030.41;5076783;28;819;-41
2021/07/05 05:09:10;;;;;;;;;;;;;;;21.99;62.06;100033.78;5058714;28;1461;-42
2021/07/05 05:11:35;;;;;;;;;;;;;;;21.74;63.15;100030.75;5076725;28;790;-43
2021/07/05 05:14:00;;;;;;;;;;;;;;;21.54;64.09;100032.19;5055636;28;1059;-41
2021/07/05 05:16:26;;;;;;;;;;;;;;;;;;5056421;28;819;-40
2021/07/05 05:18:51;;;;;;;;;;;;;;;20.58;58.98;100031.94;5056683;28;795;-39
2021/07/05 05:21:20;;;;;;;;;;;;;;;20.67;60.87;100032.78;5022131;28;1279;-39
2021/07/05 05:23:46;;;;;;;;;;;;;;;20.88;60.40;100032.25;5038727;28;1914;-41
2021/07/05 05:26:11;;;;;;;;;;;;;;;20.66;59.30;100036.69;5038705;28;796;-40
2021/07/05 05:28:37;;;;;;;;;;;;;;;20.58;58.85;100037.47;5038639;28;922;-40
2021/07/05 05:31:03;;;;;;;;;;;;;;;20.82;58.14;100020.53;5037782;28;2261;-44
2021/07/05 05:33:28;;;;;;;;;;;;;;;21.10;57.63;100037.66;5038849;28;803;-44
2021/07/05 05:35:54;;;;;;;;;;;;;;;21.09;57.96;100038.78;5038685;28;1998;-43
2021/07/05 05:38:20;;;;;;;;;;;;;;;21.06;58.17;100042.19;5021082;28;1422;-43
2021/07/05 05:40:48;;;;;;;;;;;;;;;21.14;58.03;100038.66;5022169;28;897;-43
2021/07/05 05:43:14;;;;;;;;;;;;;;;21.15;58.08;100034.75;5022156;28;2125;-42
2021/07/05 05:45:39;;;;;;;;;;;;;;;21.22;57.96;100028.72;5037857;28;1062;-43
2021/07/05 05:48:06;;;;;;;;;;;;;;;21.19;58.15;100023.84;5022080;28;824;-43
2021/07/05 05:50:32;;;;;;;;;;;;;;;21.19;58.32;100027.41;5022477;28;1087;-43
2021/07/05 05:52:58;;;;;;;;;;;;;;;21.15;58.48;100028.38;5038171;28;1212;-43
2021/07/05 05:55:23;;;;;;;;;;;;;;;20.80;59.52;100018.09;5022264;28;763;-43
2021/07/05 05:57:50;;;;;;;;;;;;;;;20.81;59.81;100022.47;5038376;28;807;-42
2021/07/05 06:00:21;;;;;;;;;;;;;;;20.62;58.68;100027.41;5021038;28;1264;-42
2021/07/05 06:02:47;;;;;;;;;;;;;;;20.92;59.78;100013.88;5023037;28;1906;-42
2021/07/05 06:05:13;;;;;;;;;;;;;;;21.02;59.25;100024.63;5038793;28;902;-43
2021/07/05 06:07:47;;;;;;;;;;;;;;;21.28;59.25;100021.09;5021898;28;1245;-42
2021/07/05 06:10:13;;;;;;;;;;;;;;;21.40;59.58;100023.22;5022794;28;787;-42
2021/07/05 06:12:39;;;;;;;;;;;;;;;21.53;59.84;100012.03;5022468;28;1652;-44
2021/07/05 06:15:08;;;;;;;;;;;;;;;21.12;61.72;100029.03;5037900;28;1102;-43
2021/07/05 06:17:33;;;;;;;;;;;;;;;21.03;62.60;100020.75;5005745;28;1238;-43
2021/07/05 06:19:59;;;;;;;;;;;;;;;20.95;60.48;100022.34;5056133;28;862;-42
2021/07/05 06:22:28;;;;;;;;;;;;;;;20.65;60.02;100026.75;5004692;28;1903;-43
2021/07/05 06:24:54;;;;;;;;;;;;;;;21.34;62.41;100028.09;5022296;28;1576;-42
2021/07/05 06:27:19;;;;;;;;;;;;;;;21.62;62.45;100014.78;5021448;28;1099;-42
2021/07/05 06:29:45;;;;;;;;;;;;;;;21.76;61.81;100011.03;5055393;28;1010;-43
2021/07/05 06:32:11;;;;;;;;;;;;;;;21.74;61.74;100013.31;5038370;28;784;-44
2021/07/05 06:34:39;;;;;;;;;;;;;;;21.16;63.23;100016.19;5024550;28;1054;-42
2021/07/05 06:37:05;;;;;;;;;;;;;;;21.11;62.97;100008.88;5040760;28;931;-41
2021/07/05 06:39:36;;;;;;;;;;;;;;;20.70;61.98;100018.38;5025983;28;1134;-43
2021/07/05 06:42:02;;;;;;;;;;;;;;;21.33;62.42;100012.63;5009083;28;1988;-41
2021/07/05 06:44:35;;;;;;;;;;;;;;;21.60;63.36;100013.47;5025706;28;1090;-40
2021/07/05 06:47:03;;;;;;;;;;;;;;;21.79;62.46;100010.38;5006768;28;1113;-44
2021/07/05 06:49:29;;;;;;;;;;;;;;;21.85;62.04;100014.59;5006813;28;969;-41
2021/07/05 06:54:25;;;;;;;;;;;;;;;21.48;62.75;100019.66;5037339;28;1601;-43
2021/07/05 06:56:51;;;;;;;;;;;;;;;21.11;61.14;100006.13;5039455;28;759;-43
2021/07/05 06:59:16;;;;;;;;;;;;;;;20.91;60.57;100002.00;5038213;28;979;-43
2021/07/05 07:01:41;;;;;;;;;;;;;;;21.30;62.96;100002.22;5039417;28;1977;-43
2021/07/05 07:04:07;;;;;;;;;;;;;;;21.67;63.61;100016.56;5039294;28;736;-42
2021/07/05 07:06:32;;;;;;;;;;;;;;;21.65;62.54;100013.31;5038816;28;831;-47
2021/07/05 07:08:58;;;;;;;;;;;;;;;21.91;62.75;100009.69;5039152;28;728;-43
2021/07/05 07:11:23;;;;;;;;;;;;;;;21.66;64.23;100009.44;5039047;28;784;-44
2021/07/05 07:13:49;;;;;;;;;;;;;;;21.77;64.17;100007.94;5038803;28;968;-44
2021/07/05 07:16:16;;;;;;;;;;;;;;;21.29;61.74;100017.19;5039046;28;772;-44
2021/07/05 07:21:10;;;;;;;;;;;;;;;21.17;59.09;100006.78;5038768;28;764;-44
2021/07/05 07:23:35;;;;;;;;;;;;;;;21.06;59.46;100014.56;5038973;28;1977;-44
2021/07/05 07:26:01;;;;;;;;;;;;;;;20.75;59.02;100009.94;5038689;28;759;-44
2021/07/05 07:28:26;;;;;;;;;;;;;;;20.68;58.00;100013.16;5038531;28;855;-43
2021/07/05 07:30:51;;;;;;;;;;;;;;;20.79;57.35;100016.47;5038404;28;963;-48
2021/07/05 07:33:17;;;;;;;;;;;;;;;20.90;57.89;100016.97;5038662;28;772;-43
2021/07/05 07:35:42;;;;;;;;;;;;;;;21.07;57.87;100013.44;5038758;28;851;-40
2021/07/05 07:38:08;;;;;;;;;;;;;;;21.25;57.53;100013.44;5039423;28;755;-46
2021/07/05 07:40:36;;;;;;;;;;;;;;;21.05;58.13;100003.81;5038524;28;732;-43
2021/07/05 07:43:02;;;;;;;;;;;;;;;21.24;57.90;100015.41;5038239;28;1985;-42
2021/07/05 07:45:27;;;;;;;;;;;;;;;21.19;58.00;100013.59;5037991;28;923;-43
2021/07/05 07:47:53;;;;;;;;;;;;;;;21.16;58.35;100013.44;5038397;28;794;-42
2021/07/05 07:50:18;;;;;;;;;;;;;;;21.05;58.49;100017.66;5038396;28;783;-42
2021/07/05 07:52:44;;;;;;;;;;;;;;;20.96;59.39;100020.41;5044669;28;1008;-42
2021/07/05 07:55:10;;;;;;;;;;;;;;;20.72;59.75;100038.22;5058310;28;755;-42
2021/07/05 07:57:36;;;;;;;;;;;;;;;20.64;57.92;100036.19;5058075;28;835;-42
2021/07/05 08:00:03;;;;;;;;;;;;;;;20.84;59.97;100030.09;5040001;28;1070;-44
2021/07/05 08:02:37;;;;;;;;;;;;;;;21.29;59.59;100018.00;5058258;28;1914;-43
2021/07/05 08:05:03;;;;;;;;;;;;;;;21.60;59.89;100022.59;5058122;28;751;-43
2021/07/05 08:07:29;;;;;;;;;;;;;;;21.51;61.17;100030.84;5058394;28;794;-42
2021/07/05 08:09:55;;;;;;;;;;;;;;;21.31;63.04;100037.06;5057703;28;780;-42
2021/07/05 08:12:20;;;;;;;;;;;;;;;21.19;62.38;100032.13;5057732;28;866;-42
2021/07/05 08:14:46;;;;;;;;;;;;;;;20.83;60.74;100031.25;5057579;28;967;-41
2021/07/05 08:17:11;;;;;;;;;;;;;;;21.02;60.34;100030.16;5057160;28;1084;-41
2021/07/05 08:19:36;;;;;;;;;;;;;;;21.52;62.44;100026.19;5036914;28;825;-43
2021/07/05 08:22:02;;;;;;;;;;;;;;;21.91;63.65;100031.84;5037795;28;1906;-44
2021/07/05 08:24:28;;;;;;;;;;;;;;;22.15;63.94;100026.59;5037581;28;791;-42
2021/07/05 08:26:53;;;;;;;;;;;;;;;22.03;63.84;100029.22;5037567;28;851;-44
2021/07/05 08:29:18;;;;;;;;;;;;;;;21.67;64.88;100030.41;5041604;28;1014;-42
2021/07/05 08:31:44;;;;;;;;;;;;;;;21.77;64.16;100024.53;5057352;28;807;-42
2021/07/05 08:34:09;;;;;;;;;;;;;;;21.32;59.59;100019.28;5057563;28;747;-42
2021/07/05 08:36:36;;;;;;;;;;;;;;;20.92;59.55;100022.97;5057190;28;783;-42
2021/07/05 08:39:02;;;;;;;;;;;;;;;21.34;59.70;100026.13;5057075;28;806;-44
2021/07/05 08:41:27;;;;;;;;;;;;;;;20.99;60.32;100025.28;5068649;28;710;-42
2021/07/05 08:43:53;;;;;;;;;;;;;;;20.90;58.42;100028.03;5075418;28;1902;-44
2021/07/05 08:46:22;;;;;;;;;;;;;;;20.58;56.77;100030.00;5039281;28;799;-42
2021/07/05 08:48:47;;;;;;;;;;;;;;;20.41;55.52;100032.69;5057252;28;815;-42
2021/07/05 08:51:14;;;;;;;;;;;;;;;20.87;55.60;100020.38;5057166;28;783;-43
2021/07/05 08:53:40;;;;;;;;;;;;;;;21.13;58.25;100025.94;5071929;28;1119;-42
2021/07/05 08:56:05;;;;;;;;;;;;;;;21.44;59.82;100024.19;5076643;28;842;-42
2021/07/05 08:58:31;;;;;;;;;;;;;;;21.41;61.34;100020.13;5076523;28;748;-45
2021/07/05 09:00:56;;;;;;;;;;;;;;;21.14;63.86;100019.28;5057978;28;959;-43
2021/07/05 09:03:22;;;;;;;;;;;;;;;21.41;62.83;100020.13;5056787;28;1964;-43
2021/07/05 09:06:06;;;;;;;;;;;;;;;21.12;60.89;100015.22;5056765;28;747;-43
2021/07/05 09:08:35;;;;;;;;;;;;;;;20.59;61.31;100028.84;5056820;28;791;-43
2021/07/05 09:11:00;;;;;;;;;;;;;;;21.24;62.58;100020.09;5056708;28;771;-43
2021/07/05 09:13:26;;;;;;;;;;;;;;;21.68;64.14;100018.19;5056150;28;835;-43
2021/07/05 09:15:52;;;;;;;;;;;;;;;22.02;64.86;100019.28;5056312;28;951;-44
2021/07/05 09:18:23;;;;;;;;;;;;;;;22.24;65.13;100017.44;5056731;28;744;-43
2021/07/05 09:20:49;;;;;;;;;;;;;;;21.88;65.07;100011.16;5056086;28;803;-42
2021/07/05 09:23:15;;;;;;;;;;;;;;;21.80;65.08;100009.25;5056488;28;2035;-43
2021/07/05 09:25:41;;;;;;;;;;;;;;;21.49;62.02;100012.94;5056439;28;779;-43
2021/07/05 09:28:07;;;;;;;;;;;;;;;21.10;59.75;100014.75;5038512;28;824;-43
2021/07/05 09:30:42;;;;;;;;;;;;;;;21.05;61.77;100007.41;5055826;28;1018;-44
2021/07/05 09:33:23;;;;;;;;;;;;;;;21.11;61.50;100000.59;5056446;28;894;-43
2021/07/05 09:35:52;;;;;;;;;;;;;;;21.06;58.96;100006.28;5055816;28;835;-43
2021/07/05 09:38:28;;;;;;;;;;;;;;;20.88;56.55;99996.31;5056404;28;784;-43
2021/07/05 09:40:53;;;;;;;;;;;;;;;20.41;56.09;100002.31;5056118;28;814;-44
2021/07/05 09:43:26;;;;;;;;;;;;;;;20.27;55.34;99999.63;5038042;28;1918;-44
2021/07/05 09:45:51;;;;;;;;;;;;;;;20.54;55.22;100001.41;5056090;28;1027;-41
2021/07/05 09:48:18;;;;;;;;;;;;;;;20.58;56.23;100004.31;5038501;28;1083;-46
2021/07/05 09:50:44;;;;;;;;;;;;;;;20.74;57.32;100002.78;5055758;28;739;-44
2021/07/05 09:53:28;;;;;;;;;;;;;;;20.82;57.96;100001.19;5056354;28;1036;-43
2021/07/05 09:55:53;;;;;;;;;;;;;;;21.17;57.62;100002.06;5056162;28;783;-44
2021/07/05 09:58:36;;;;;;;;;;;;;;;21.18;58.16;100003.69;5056042;28;768;-43
2021/07/05 10:01:02;;;;;;;;;;;;;;;21.22;58.32;100005.81;5055825;28;954;-42
2021/07/05 10:03:35;;;;;;;;;;;;;;;21.03;58.72;100007.72;5055550;28;1890;-43
2021/07/05 10:06:15;;;;;;;;;;;;;;;20.71;60.65;100008.94;5055969;28;744;-43
2021/07/05 10:08:41;;;;;;;;;;;;;;;20.62;59.39;100013.59;5058556;28;728;-44
2021/07/05 10:11:06;;;;;;;;;;;;;;;20.68;61.31;99998.53;5059776;28;763;-43
2021/07/05 10:13:32;;;;;;;;;;;;;;;21.09;59.69;99997.31;5060060;28;802;-42
2021/07/05 10:16:01;;;;;;;;;;;;;;;20.94;60.28;100000.56;5059885;28;955;-43
2021/07/05 10:18:26;;;;;;;;;;;;;;;21.02;60.08;99997.00;5059620;28;847;-45
2021/07/05 10:20:52;;;;;;;;;;;;;;;21.39;59.01;99989.19;5059862;28;779;-46
2021/07/05 10:23:17;;;;;;;;;;;;;;;20.93;60.14;99998.91;5059925;28;1977;-45
2021/07/05 10:25:44;;;;;;;;;;;;;;;20.68;61.56;99999.34;5059741;28;771;-44
2021/07/05 10:28:09;;;;;;;;;;;;;;;20.64;60.38;99998.34;5060005;28;945;-43
2021/07/05 10:30:35;;;;;;;;;;;;;;;20.78;60.75;99995.47;5059635;28;1030;-42
2021/07/05 10:33:00;;;;;;;;;;;;;;;20.97;60.84;99995.22;5059097;28;767;-45
2021/07/05 10:35:36;;;;;;;;;;;;;;;21.06;60.33;99997.97;5059636;28;815;-45
2021/07/05 10:38:04;;;;;;;;;;;;;;;21.28;59.62;100001.72;5059600;28;779;-43
2021/07/05 10:40:33;;;;;;;;;;;;;;;21.29;59.78;100003.38;5059375;28;807;-43
2021/07/05 10:42:59;;;;;;;;;;;;;;;21.16;59.97;99992.13;5059401;28;1917;-42
2021/07/05 10:45:37;;;;;;;;;;;;;;;20.78;61.29;99987.19;5058859;28;979;-44
2021/07/05 10:48:03;;;;;;;;;;;;;;;20.54;61.32;99982.06;5059229;28;763;-42
2021/07/05 10:50:47;;;;;;;;;;;;;;;20.29;60.80;99991.88;5059552;28;763;-43
2021/07/05 10:53:33;;;;;;;;;;;;;;;20.98;60.99;99996.00;5058848;28;1001;-43
2021/07/05 10:55:59;;;;;;;;;;;;;;;21.12;60.35;99993.91;5041767;28;1640;-43
2021/07/05 10:58:31;;;;;;;;;;;;;;;21.28;59.60;99993.44;5059246;28;823;-41
2021/07/05 11:01:04;;;;;;;;;;;;;;;21.52;58.82;99993.78;5059092;28;947;-42
2021/07/05 11:03:35;;;;;;;;;;;;;;;21.14;59.85;99997.19;5058689;28;1970;-42
2021/07/05 11:06:01;;;;;;;;;;;;;;;21.00;60.51;100002.03;5059045;28;843;-42
2021/07/05 11:08:30;;;;;;;;;;;;;;;20.72;59.56;99999.53;5059216;28;822;-42
2021/07/05 11:11:16;;;;;;;;;;;;;;;20.70;59.53;99993.50;5059454;28;783;-43
2021/07/05 11:13:41;;;;;;;;;;;;;;;21.17;60.63;99992.97;5058696;28;744;-42
2021/07/05 11:16:07;;;;;;;;;;;;;;;21.38;59.55;99995.91;5041033;28;1003;-44
2021/07/05 11:18:38;;;;;;;;;;;;;;;21.16;59.98;99994.88;5058752;28;863;-42
2021/07/05 11:21:04;;;;;;;;;;;;;;;21.41;59.16;99989.72;5058095;28;776;-42
2021/07/05 11:23:48;;;;;;;;;;;;;;;20.85;60.74;100004.09;5058637;28;1910;-42
2021/07/05 11:26:17;;;;;;;;;;;;;;;20.85;61.40;99998.59;5058478;28;748;-43
2021/07/05 11:28:43;;;;;;;;;;;;;;;20.65;59.78;99985.31;5058711;28;759;-43
2021/07/05 11:31:21;;;;;;;;;;;;;;;20.46;61.41;99997.44;5040391;28;976;-44
2021/07/05 11:33:46;;;;;;;;;;;;;;;20.97;61.02;99989.69;5058189;28;759;-42
2021/07/05 11:36:18;;;;;;;;;;;;;;;21.11;60.37;99983.19;5058534;28;755;-43
2021/07/05 11:38:44;;;;;;;;;;;;;;;21.36;59.33;99978.78;5058668;28;814;-42
2021/07/05 11:41:10;;;;;;;;;;;;;;;21.11;60.07;99978.47;5058167;28;756;-42
2021/07/05 11:43:49;;;;;;;;;;;;;;;21.20;60.02;99976.50;5058217;28;2036;-42
2021/07/05 11:46:15;;;;;;;;;;;;;;;20.63;60.06;99974.59;5058654;28;815;-42
2021/07/05 11:48:40;;;;;;;;;;;;;;;20.44;58.89;99971.28;5057986;28;826;-43
2021/07/05 11:51:26;;;;;;;;;;;;;;;20.88;61.28;99975.03;5058338;28;748;-42
2021/07/05 11:54:02;;;;;;;;;;;;;;;21.39;60.43;99967.06;5039874;28;1031;-41
2021/07/05 11:56:41;;;;;;;;;;;;;;;21.49;60.54;99960.41;5057673;28;779;-43
2021/07/05 11:59:36;;;;;;;;;;;;;;;21.34;61.18;99956.19;5057808;28;1026;-42
2021/07/05 12:02:04;;;;;;;;;;;;;;;21.15;62.23;99965.63;5036313;28;1914;-44
2021/07/05 12:04:30;;;;;;;;;;;;;;;21.05;61.20;99968.69;5057954;28;768;-42
2021/07/05 12:06:56;;;;;;;;;;;;;;;20.72;60.64;99966.38;5058044;28;740;-44
2021/07/05 12:09:25;;;;;;;;;;;;;;;21.07;62.28;99966.44;5057683;28;806;-46
2021/07/05 12:11:50;;;;;;;;;;;;;;;21.39;63.36;99958.78;5058038;28;735;-43
2021/07/05 12:14:17;;;;;;;;;;;;;;;21.48;62.87;99959.59;5057334;28;967;-43
2021/07/05 12:16:44;;;;;;;;;;;;;;;21.74;62.00;99950.50;5057312;28;759;-44
2021/07/05 12:19:12;;;;;;;;;;;;;;;21.78;61.63;99956.16;5057893;28;818;-43
2021/07/05 12:22:01;;;;;;;;;;;;;;;21.64;61.53;99961.88;5057678;28;763;-43
2021/07/05 12:24:27;;;;;;;;;;;;;;;21.00;64.45;99957.81;5044105;28;1301;-42
2021/07/05 12:26:53;;;;;;;;;;;;;;;21.13;61.96;99942.22;5057947;28;815;-43
2021/07/05 12:29:22;;;;;;;;;;;;;;;20.99;61.09;99951.47;5057063;28;1015;-44
2021/07/05 12:31:59;;;;;;;;;;;;;;;20.81;63.97;99953.38;5056133;28;827;-43
2021/07/05 12:34:35;;;;;;;;;;;;;;;20.93;63.42;99955.53;5057440;28;495;-43
2021/07/05 12:37:00;;;;;;;;;;;;;;;20.99;63.08;99959.75;5040619;28;736;-45
2021/07/05 12:39:26;;;;;;;;;;;;;;;20.46;64.53;99950.50;5070184;28;863;-43
2021/07/05 12:41:51;;;;;;;;;;;;;;;20.51;63.64;99947.59;5057321;28;1981;-45
2021/07/05 12:44:17;;;;;;;;;;;;;;;20.61;64.22;99954.78;5056350;28;923;-43
2021/07/05 12:46:42;;;;;;;;;;;;;;;20.54;64.61;99943.41;5038805;28;868;-42
2021/07/05 12:49:08;;;;;;;;;;;;;;;20.51;64.19;99936.56;5039320;28;823;-46
2021/07/05 12:51:34;;;;;;;;;;;;;;;21.24;62.97;99937.16;5039089;28;957;-42
2021/07/05 12:54:00;;;;;;;;;;;;;;;21.49;63.34;99932.75;5038548;28;1155;-46
2021/07/05 12:56:29;;;;;;;;;;;;;;;21.76;62.99;99926.06;5056904;28;791;-43
2021/07/05 12:58:55;;;;;;;;;;;;;;;21.86;62.87;99930.44;5056541;28;963;-45
2021/07/05 13:01:27;;;;;;;;;;;;;;;21.57;64.04;99934.72;5056655;28;756;-43